Terminal Aerodrome Forecast
Issued by NWS Grand Rapids, MI

Home | Current Version | Previous Version | Text Only | Print | Product List | Glossary On
Versions: 1 2 3 4 5 6 7 8 9 10 11 12 13 14 15 16 17 18 19 20 21 22 23 24 25 26 27
000
FTUS43 KGRR 171725
TAFGRR
TAF
KGRR 171725Z 1718/1818 26008KT 4SM -DZ BR OVC004
      TEMPO 1718/1722 1SM -DZ OVC002
     FM172200 25008KT 1SM -DZ BR OVC002
     FM181600 24009KT 6SM HZ OVC008=

USA.gov is the U.S. government's official web portal to all federal, state and local government web resources and services.